sensor_id;sensor_type;location;lat;lon;timestamp;P1;durP1;ratioP1;P2;durP2;ratioP2
60436;SDS011;46289;51.992;4.498;2022-07-30T00:01:56;19.73;;;9.00;;
60436;SDS011;46289;51.992;4.498;2022-07-30T00:04:26;14.10;;;8.52;;
60436;SDS011;46289;51.992;4.498;2022-07-30T00:07:00;13.93;;;8.00;;
60436;SDS011;46289;51.992;4.498;2022-07-30T00:09:31;20.08;;;8.30;;
60436;SDS011;46289;51.992;4.498;2022-07-30T00:12:01;14.98;;;8.48;;
60436;SDS011;46289;51.992;4.498;2022-07-30T00:14:32;13.75;;;8.25;;
60436;SDS011;46289;51.992;4.498;2022-07-30T00:17:05;16.40;;;8.27;;
60436;SDS011;46289;51.992;4.498;2022-07-30T00:19:36;13.88;;;7.55;;
60436;SDS011;46289;51.992;4.498;2022-07-30T00:22:06;14.60;;;7.50;;
60436;SDS011;46289;51.992;4.498;2022-07-30T00:24:36;14.10;;;7.15;;
60436;SDS011;46289;51.992;4.498;2022-07-30T00:27:06;10.80;;;6.10;;
60436;SDS011;46289;51.992;4.498;2022-07-30T00:29:36;15.93;;;7.35;;
60436;SDS011;46289;51.992;4.498;2022-07-30T00:32:13;14.98;;;6.13;;
60436;SDS011;46289;51.992;4.498;2022-07-30T00:34:43;14.27;;;6.70;;
60436;SDS011;46289;51.992;4.498;2022-07-30T00:37:13;13.57;;;5.88;;
60436;SDS011;46289;51.992;4.498;2022-07-30T00:39:43;11.93;;;6.38;;
60436;SDS011;46289;51.992;4.498;2022-07-30T00:42:13;15.05;;;6.68;;
60436;SDS011;46289;51.992;4.498;2022-07-30T00:44:51;12.63;;;6.38;;
60436;SDS011;46289;51.992;4.498;2022-07-30T00:47:24;11.45;;;5.40;;
60436;SDS011;46289;51.992;4.498;2022-07-30T00:49:55;14.02;;;6.25;;
60436;SDS011;46289;51.992;4.498;2022-07-30T00:52:25;11.30;;;6.40;;
60436;SDS011;46289;51.992;4.498;2022-07-30T00:54:55;13.20;;;6.25;;
60436;SDS011;46289;51.992;4.498;2022-07-30T00:57:25;13.55;;;6.50;;
60436;SDS011;46289;51.992;4.498;2022-07-30T00:59:55;13.77;;;5.93;;
60436;SDS011;46289;51.992;4.498;2022-07-30T01:02:28;16.10;;;6.15;;
60436;SDS011;46289;51.992;4.498;2022-07-30T01:04:59;13.93;;;6.25;;
60436;SDS011;46289;51.992;4.498;2022-07-30T01:07:29;15.93;;;6.70;;
60436;SDS011;46289;51.992;4.498;2022-07-30T01:09:59;12.93;;;6.85;;
60436;SDS011;46289;51.992;4.498;2022-07-30T01:12:29;14.93;;;7.05;;
60436;SDS011;46289;51.992;4.498;2022-07-30T01:15:00;13.40;;;5.85;;
60436;SDS011;46289;51.992;4.498;2022-07-30T01:17:36;12.10;;;6.97;;
60436;SDS011;46289;51.992;4.498;2022-07-30T01:20:08;11.77;;;6.88;;
60436;SDS011;46289;51.992;4.498;2022-07-30T01:22:46;14.43;;;6.43;;
60436;SDS011;46289;51.992;4.498;2022-07-30T01:25:23;14.13;;;6.32;;
60436;SDS011;46289;51.992;4.498;2022-07-30T01:28:05;10.25;;;6.13;;
60436;SDS011;46289;51.992;4.498;2022-07-30T01:30:43;14.25;;;6.60;;
60436;SDS011;46289;51.992;4.498;2022-07-30T01:33:17;12.25;;;5.72;;
60436;SDS011;46289;51.992;4.498;2022-07-30T01:35:49;13.77;;;6.18;;
60436;SDS011;46289;51.992;4.498;2022-07-30T01:38:21;9.88;;;6.20;;
60436;SDS011;46289;51.992;4.498;2022-07-30T01:41:00;12.63;;;7.82;;
60436;SDS011;46289;51.992;4.498;2022-07-30T01:43:34;17.60;;;7.00;;
60436;SDS011;46289;51.992;4.498;2022-07-30T01:46:07;13.45;;;6.47;;
60436;SDS011;46289;51.992;4.498;2022-07-30T01:48:39;12.93;;;5.78;;
60436;SDS011;46289;51.992;4.498;2022-07-30T01:51:13;13.27;;;6.65;;
60436;SDS011;46289;51.992;4.498;2022-07-30T01:53:46;15.00;;;6.65;;
60436;SDS011;46289;51.992;4.498;2022-07-30T01:56:20;12.23;;;5.93;;
60436;SDS011;46289;51.992;4.498;2022-07-30T01:58:56;10.50;;;5.82;;
60436;SDS011;46289;51.992;4.498;2022-07-30T02:01:28;11.65;;;6.32;;
60436;SDS011;46289;51.992;4.498;2022-07-30T02:03:59;12.13;;;6.00;;
60436;SDS011;46289;51.992;4.498;2022-07-30T02:06:31;11.25;;;5.80;;
60436;SDS011;46289;51.992;4.498;2022-07-30T02:09:06;12.70;;;6.82;;
60436;SDS011;46289;51.992;4.498;2022-07-30T02:11:39;11.77;;;6.05;;
60436;SDS011;46289;51.992;4.498;2022-07-30T02:14:27;13.43;;;7.43;;
60436;SDS011;46289;51.992;4.498;2022-07-30T02:17:02;10.10;;;5.70;;
60436;SDS011;46289;51.992;4.498;2022-07-30T02:19:44;12.85;;;6.07;;
60436;SDS011;46289;51.992;4.498;2022-07-30T02:22:21;9.95;;;5.45;;
60436;SDS011;46289;51.992;4.498;2022-07-30T02:24:55;11.18;;;5.97;;
60436;SDS011;46289;51.992;4.498;2022-07-30T02:27:32;11.20;;;5.95;;
60436;SDS011;46289;51.992;4.498;2022-07-30T02:30:10;13.57;;;6.47;;
60436;SDS011;46289;51.992;4.498;2022-07-30T02:32:42;12.18;;;5.63;;
60436;SDS011;46289;51.992;4.498;2022-07-30T02:35:14;11.73;;;6.00;;
60436;SDS011;46289;51.992;4.498;2022-07-30T02:37:48;11.68;;;6.88;;
60436;SDS011;46289;51.992;4.498;2022-07-30T02:40:21;12.88;;;6.55;;
60436;SDS011;46289;51.992;4.498;2022-07-30T02:42:53;11.40;;;6.25;;
60436;SDS011;46289;51.992;4.498;2022-07-30T02:45:29;12.20;;;7.65;;
60436;SDS011;46289;51.992;4.498;2022-07-30T02:47:59;14.73;;;6.63;;
60436;SDS011;46289;51.992;4.498;2022-07-30T02:50:32;13.80;;;6.60;;
60436;SDS011;46289;51.992;4.498;2022-07-30T02:53:04;12.82;;;6.32;;
60436;SDS011;46289;51.992;4.498;2022-07-30T02:55:37;10.75;;;6.20;;
60436;SDS011;46289;51.992;4.498;2022-07-30T02:58:09;12.00;;;5.97;;
60436;SDS011;46289;51.992;4.498;2022-07-30T03:00:46;13.68;;;6.68;;
60436;SDS011;46289;51.992;4.498;2022-07-30T03:03:17;12.27;;;6.10;;
60436;SDS011;46289;51.992;4.498;2022-07-30T03:05:55;15.70;;;8.13;;
60436;SDS011;46289;51.992;4.498;2022-07-30T03:08:30;11.32;;;6.95;;
60436;SDS011;46289;51.992;4.498;2022-07-30T03:11:02;13.63;;;7.18;;
60436;SDS011;46289;51.992;4.498;2022-07-30T03:13:34;15.70;;;8.00;;
60436;SDS011;46289;51.992;4.498;2022-07-30T03:16:08;10.85;;;6.47;;
60436;SDS011;46289;51.992;4.498;2022-07-30T03:18:39;16.77;;;6.90;;
60436;SDS011;46289;51.992;4.498;2022-07-30T03:21:11;15.73;;;7.00;;
60436;SDS011;46289;51.992;4.498;2022-07-30T03:23:43;15.90;;;8.07;;
60436;SDS011;46289;51.992;4.498;2022-07-30T03:26:16;13.18;;;7.40;;
60436;SDS011;46289;51.992;4.498;2022-07-30T03:28:50;10.90;;;6.45;;
60436;SDS011;46289;51.992;4.498;2022-07-30T03:31:25;14.98;;;8.02;;
60436;SDS011;46289;51.992;4.498;2022-07-30T03:34:03;13.60;;;7.22;;
60436;SDS011;46289;51.992;4.498;2022-07-30T03:36:38;14.00;;;7.88;;
60436;SDS011;46289;51.992;4.498;2022-07-30T03:39:08;13.07;;;7.25;;
60436;SDS011;46289;51.992;4.498;2022-07-30T03:41:40;14.70;;;8.05;;
60436;SDS011;46289;51.992;4.498;2022-07-30T03:44:10;16.95;;;8.82;;
60436;SDS011;46289;51.992;4.498;2022-07-30T03:46:43;18.48;;;8.88;;
60436;SDS011;46289;51.992;4.498;2022-07-30T03:49:16;13.68;;;7.75;;
60436;SDS011;46289;51.992;4.498;2022-07-30T03:51:52;14.13;;;7.40;;
60436;SDS011;46289;51.992;4.498;2022-07-30T03:54:24;15.85;;;8.63;;
60436;SDS011;46289;51.992;4.498;2022-07-30T03:56:56;13.38;;;7.80;;
60436;SDS011;46289;51.992;4.498;2022-07-30T03:59:26;16.92;;;9.25;;
60436;SDS011;46289;51.992;4.498;2022-07-30T04:02:04;15.60;;;7.85;;
60436;SDS011;46289;51.992;4.498;2022-07-30T04:04:34;15.50;;;8.77;;
60436;SDS011;46289;51.992;4.498;2022-07-30T04:07:04;18.60;;;9.05;;
60436;SDS011;46289;51.992;4.498;2022-07-30T04:09:35;15.98;;;8.93;;
60436;SDS011;46289;51.992;4.498;2022-07-30T04:12:05;13.00;;;8.30;;
60436;SDS011;46289;51.992;4.498;2022-07-30T04:14:38;19.00;;;8.48;;
60436;SDS011;46289;51.992;4.498;2022-07-30T04:17:15;14.70;;;8.45;;
60436;SDS011;46289;51.992;4.498;2022-07-30T04:19:53;13.75;;;7.43;;
60436;SDS011;46289;51.992;4.498;2022-07-30T04:22:30;15.45;;;8.95;;
60436;SDS011;46289;51.992;4.498;2022-07-30T04:25:02;16.77;;;8.75;;
60436;SDS011;46289;51.992;4.498;2022-07-30T04:27:34;13.13;;;7.45;;
60436;SDS011;46289;51.992;4.498;2022-07-30T04:30:25;13.07;;;7.55;;
60436;SDS011;46289;51.992;4.498;2022-07-30T04:32:59;14.45;;;7.95;;
60436;SDS011;46289;51.992;4.498;2022-07-30T04:35:30;17.00;;;9.25;;
60436;SDS011;46289;51.992;4.498;2022-07-30T04:38:17;17.42;;;8.32;;
60436;SDS011;46289;51.992;4.498;2022-07-30T04:40:48;15.75;;;7.88;;
60436;SDS011;46289;51.992;4.498;2022-07-30T04:43:20;14.75;;;8.15;;
60436;SDS011;46289;51.992;4.498;2022-07-30T04:45:50;13.65;;;8.20;;
60436;SDS011;46289;51.992;4.498;2022-07-30T04:48:23;16.00;;;7.88;;
60436;SDS011;46289;51.992;4.498;2022-07-30T04:50:56;13.98;;;8.00;;
60436;SDS011;46289;51.992;4.498;2022-07-30T04:53:33;13.45;;;7.60;;
60436;SDS011;46289;51.992;4.498;2022-07-30T04:56:04;18.63;;;8.50;;
60436;SDS011;46289;51.992;4.498;2022-07-30T04:58:35;14.98;;;8.40;;
60436;SDS011;46289;51.992;4.498;2022-07-30T05:01:07;16.90;;;9.07;;
60436;SDS011;46289;51.992;4.498;2022-07-30T05:03:41;20.65;;;9.75;;
60436;SDS011;46289;51.992;4.498;2022-07-30T05:06:12;18.90;;;9.65;;
60436;SDS011;46289;51.992;4.498;2022-07-30T05:08:43;15.63;;;8.15;;
60436;SDS011;46289;51.992;4.498;2022-07-30T05:11:19;14.95;;;7.55;;
60436;SDS011;46289;51.992;4.498;2022-07-30T05:13:52;13.80;;;8.40;;
60436;SDS011;46289;51.992;4.498;2022-07-30T05:16:24;18.45;;;8.50;;
60436;SDS011;46289;51.992;4.498;2022-07-30T05:18:59;12.57;;;7.47;;
60436;SDS011;46289;51.992;4.498;2022-07-30T05:21:33;16.30;;;7.90;;
60436;SDS011;46289;51.992;4.498;2022-07-30T05:24:03;15.85;;;8.52;;
60436;SDS011;46289;51.992;4.498;2022-07-30T05:26:34;17.77;;;7.95;;
60436;SDS011;46289;51.992;4.498;2022-07-30T05:29:04;14.43;;;7.78;;
60436;SDS011;46289;51.992;4.498;2022-07-30T05:31:44;12.50;;;6.50;;
60436;SDS011;46289;51.992;4.498;2022-07-30T05:34:20;10.63;;;6.75;;
60436;SDS011;46289;51.992;4.498;2022-07-30T05:36:50;14.82;;;6.80;;
60436;SDS011;46289;51.992;4.498;2022-07-30T05:39:20;13.98;;;6.95;;
60436;SDS011;46289;51.992;4.498;2022-07-30T05:41:51;13.50;;;6.53;;
60436;SDS011;46289;51.992;4.498;2022-07-30T05:44:21;13.85;;;6.22;;
60436;SDS011;46289;51.992;4.498;2022-07-30T05:46:51;11.07;;;5.80;;
60436;SDS011;46289;51.992;4.498;2022-07-30T05:49:23;10.90;;;5.43;;
60436;SDS011;46289;51.992;4.498;2022-07-30T05:54:27;11.73;;;6.00;;
60436;SDS011;46289;51.992;4.498;2022-07-30T05:57:00;9.18;;;4.70;;
60436;SDS011;46289;51.992;4.498;2022-07-30T05:59:30;9.25;;;4.60;;
60436;SDS011;46289;51.992;4.498;2022-07-30T06:02:01;14.73;;;4.55;;
60436;SDS011;46289;51.992;4.498;2022-07-30T06:04:34;9.77;;;4.20;;
60436;SDS011;46289;51.992;4.498;2022-07-30T06:07:11;6.68;;;3.70;;
60436;SDS011;46289;51.992;4.498;2022-07-30T06:09:42;10.70;;;4.40;;
60436;SDS011;46289;51.992;4.498;2022-07-30T06:12:19;18.15;;;6.10;;
60436;SDS011;46289;51.992;4.498;2022-07-30T06:14:49;8.95;;;4.78;;
60436;SDS011;46289;51.992;4.498;2022-07-30T06:17:25;10.43;;;4.70;;
60436;SDS011;46289;51.992;4.498;2022-07-30T06:20:02;13.13;;;5.15;;
60436;SDS011;46289;51.992;4.498;2022-07-30T06:22:33;12.23;;;4.70;;
60436;SDS011;46289;51.992;4.498;2022-07-30T06:25:05;7.38;;;4.53;;
60436;SDS011;46289;51.992;4.498;2022-07-30T06:27:36;7.38;;;3.38;;
60436;SDS011;46289;51.992;4.498;2022-07-30T06:30:08;7.32;;;3.90;;
60436;SDS011;46289;51.992;4.498;2022-07-30T06:32:39;8.18;;;3.90;;
60436;SDS011;46289;51.992;4.498;2022-07-30T06:35:11;15.27;;;3.60;;
60436;SDS011;46289;51.992;4.498;2022-07-30T06:37:42;7.95;;;3.22;;
60436;SDS011;46289;51.992;4.498;2022-07-30T06:40:32;9.68;;;4.13;;
60436;SDS011;46289;51.992;4.498;2022-07-30T06:43:02;8.18;;;3.45;;
60436;SDS011;46289;51.992;4.498;2022-07-30T06:45:32;9.23;;;3.60;;
60436;SDS011;46289;51.992;4.498;2022-07-30T06:48:03;10.10;;;3.17;;
60436;SDS011;46289;51.992;4.498;2022-07-30T06:50:37;5.93;;;3.08;;
60436;SDS011;46289;51.992;4.498;2022-07-30T06:53:07;8.15;;;3.05;;
60436;SDS011;46289;51.992;4.498;2022-07-30T06:55:37;10.02;;;3.30;;
60436;SDS011;46289;51.992;4.498;2022-07-30T06:58:07;7.75;;;3.13;;
60436;SDS011;46289;51.992;4.498;2022-07-30T07:00:37;6.85;;;3.20;;
60436;SDS011;46289;51.992;4.498;2022-07-30T07:03:08;8.05;;;2.88;;
60436;SDS011;46289;51.992;4.498;2022-07-30T07:05:41;6.57;;;2.92;;
60436;SDS011;46289;51.992;4.498;2022-07-30T07:08:11;4.95;;;2.78;;
60436;SDS011;46289;51.992;4.498;2022-07-30T07:10:41;11.40;;;3.97;;
60436;SDS011;46289;51.992;4.498;2022-07-30T07:13:11;12.02;;;3.80;;
60436;SDS011;46289;51.992;4.498;2022-07-30T07:15:42;8.85;;;3.45;;
60436;SDS011;46289;51.992;4.498;2022-07-30T07:18:12;5.60;;;2.50;;
60436;SDS011;46289;51.992;4.498;2022-07-30T07:20:45;6.50;;;2.65;;
60436;SDS011;46289;51.992;4.498;2022-07-30T07:23:16;6.57;;;2.70;;
60436;SDS011;46289;51.992;4.498;2022-07-30T07:25:46;6.47;;;2.80;;
60436;SDS011;46289;51.992;4.498;2022-07-30T07:28:17;5.38;;;2.65;;
60436;SDS011;46289;51.992;4.498;2022-07-30T07:30:59;6.07;;;2.92;;
60436;SDS011;46289;51.992;4.498;2022-07-30T07:33:29;5.40;;;2.42;;
60436;SDS011;46289;51.992;4.498;2022-07-30T07:36:02;6.70;;;2.60;;
60436;SDS011;46289;51.992;4.498;2022-07-30T07:38:33;5.40;;;2.42;;
60436;SDS011;46289;51.992;4.498;2022-07-30T07:41:03;5.75;;;2.50;;
60436;SDS011;46289;51.992;4.498;2022-07-30T07:43:33;10.82;;;2.88;;
60436;SDS011;46289;51.992;4.498;2022-07-30T07:46:04;8.10;;;2.90;;
60436;SDS011;46289;51.992;4.498;2022-07-30T07:48:34;7.15;;;2.55;;
60436;SDS011;46289;51.992;4.498;2022-07-30T07:51:07;7.13;;;2.80;;
60436;SDS011;46289;51.992;4.498;2022-07-30T07:53:37;5.63;;;2.72;;
60436;SDS011;46289;51.992;4.498;2022-07-30T07:56:07;5.10;;;2.67;;
60436;SDS011;46289;51.992;4.498;2022-07-30T07:58:39;5.40;;;2.50;;
60436;SDS011;46289;51.992;4.498;2022-07-30T08:01:09;5.95;;;2.72;;
60436;SDS011;46289;51.992;4.498;2022-07-30T08:03:42;4.65;;;2.25;;
60436;SDS011;46289;51.992;4.498;2022-07-30T08:06:18;7.35;;;2.97;;
60436;SDS011;46289;51.992;4.498;2022-07-30T08:08:48;5.93;;;2.50;;
60436;SDS011;46289;51.992;4.498;2022-07-30T08:11:19;5.53;;;2.17;;
60436;SDS011;46289;51.992;4.498;2022-07-30T08:13:51;5.30;;;2.50;;
60436;SDS011;46289;51.992;4.498;2022-07-30T08:16:21;6.20;;;2.70;;
60436;SDS011;46289;51.992;4.498;2022-07-30T08:18:51;6.25;;;2.42;;
60436;SDS011;46289;51.992;4.498;2022-07-30T08:21:24;6.00;;;2.70;;
60436;SDS011;46289;51.992;4.498;2022-07-30T08:23:55;4.60;;;2.53;;
60436;SDS011;46289;51.992;4.498;2022-07-30T08:26:26;5.47;;;2.17;;
60436;SDS011;46289;51.992;4.498;2022-07-30T08:28:56;5.32;;;2.55;;
60436;SDS011;46289;51.992;4.498;2022-07-30T08:31:26;3.42;;;2.22;;
60436;SDS011;46289;51.992;4.498;2022-07-30T08:33:59;9.20;;;2.60;;
60436;SDS011;46289;51.992;4.498;2022-07-30T08:36:32;4.25;;;1.98;;
60436;SDS011;46289;51.992;4.498;2022-07-30T08:39:02;4.53;;;2.40;;
60436;SDS011;46289;51.992;4.498;2022-07-30T08:41:33;5.78;;;2.20;;
60436;SDS011;46289;51.992;4.498;2022-07-30T08:44:05;5.60;;;2.92;;
60436;SDS011;46289;51.992;4.498;2022-07-30T08:46:41;4.57;;;2.50;;
60436;SDS011;46289;51.992;4.498;2022-07-30T08:49:14;4.72;;;2.50;;
60436;SDS011;46289;51.992;4.498;2022-07-30T08:51:51;4.55;;;2.53;;
60436;SDS011;46289;51.992;4.498;2022-07-30T08:54:21;6.30;;;2.90;;
60436;SDS011;46289;51.992;4.498;2022-07-30T08:56:52;6.85;;;2.45;;
60436;SDS011;46289;51.992;4.498;2022-07-30T08:59:26;6.38;;;2.60;;
60436;SDS011;46289;51.992;4.498;2022-07-30T09:02:23;7.22;;;2.67;;
60436;SDS011;46289;51.992;4.498;2022-07-30T09:04:55;6.10;;;2.65;;
60436;SDS011;46289;51.992;4.498;2022-07-30T09:07:28;4.97;;;2.45;;
60436;SDS011;46289;51.992;4.498;2022-07-30T09:10:01;5.10;;;2.25;;
60436;SDS011;46289;51.992;4.498;2022-07-30T09:12:36;5.55;;;2.58;;
60436;SDS011;46289;51.992;4.498;2022-07-30T09:15:09;5.18;;;2.40;;
60436;SDS011;46289;51.992;4.498;2022-07-30T09:17:52;5.88;;;2.50;;
60436;SDS011;46289;51.992;4.498;2022-07-30T09:20:27;5.18;;;2.47;;
60436;SDS011;46289;51.992;4.498;2022-07-30T09:23:04;5.85;;;2.50;;
60436;SDS011;46289;51.992;4.498;2022-07-30T09:25:36;5.90;;;2.35;;
60436;SDS011;46289;51.992;4.498;2022-07-30T09:28:09;6.53;;;2.60;;
60436;SDS011;46289;51.992;4.498;2022-07-30T09:33:14;4.72;;;2.40;;
60436;SDS011;46289;51.992;4.498;2022-07-30T09:35:59;5.43;;;2.67;;
60436;SDS011;46289;51.992;4.498;2022-07-30T09:38:38;6.60;;;2.70;;
60436;SDS011;46289;51.992;4.498;2022-07-30T09:41:12;5.43;;;2.42;;
60436;SDS011;46289;51.992;4.498;2022-07-30T09:44:04;6.47;;;2.80;;
60436;SDS011;46289;51.992;4.498;2022-07-30T09:46:41;6.75;;;2.75;;
60436;SDS011;46289;51.992;4.498;2022-07-30T09:49:14;7.40;;;2.75;;
60436;SDS011;46289;51.992;4.498;2022-07-30T09:51:45;8.65;;;2.80;;
60436;SDS011;46289;51.992;4.498;2022-07-30T09:54:25;5.60;;;2.20;;
60436;SDS011;46289;51.992;4.498;2022-07-30T09:57:17;6.55;;;2.78;;
60436;SDS011;46289;51.992;4.498;2022-07-30T09:59:56;8.77;;;2.67;;
60436;SDS011;46289;51.992;4.498;2022-07-30T10:02:44;5.68;;;3.15;;
60436;SDS011;46289;51.992;4.498;2022-07-30T10:05:16;8.27;;;3.05;;
60436;SDS011;46289;51.992;4.498;2022-07-30T10:10:23;6.60;;;2.92;;
60436;SDS011;46289;51.992;4.498;2022-07-30T10:12:56;6.13;;;2.75;;
60436;SDS011;46289;51.992;4.498;2022-07-30T10:15:30;6.93;;;2.70;;
60436;SDS011;46289;51.992;4.498;2022-07-30T10:18:02;7.87;;;2.70;;
60436;SDS011;46289;51.992;4.498;2022-07-30T10:20:33;6.82;;;2.85;;
60436;SDS011;46289;51.992;4.498;2022-07-30T10:23:06;5.78;;;2.58;;
60436;SDS011;46289;51.992;4.498;2022-07-30T10:25:43;5.88;;;2.65;;
60436;SDS011;46289;51.992;4.498;2022-07-30T10:28:21;6.60;;;2.72;;
60436;SDS011;46289;51.992;4.498;2022-07-30T10:30:53;4.97;;;2.70;;
60436;SDS011;46289;51.992;4.498;2022-07-30T10:33:26;7.22;;;2.80;;
60436;SDS011;46289;51.992;4.498;2022-07-30T10:36:02;5.50;;;2.60;;
60436;SDS011;46289;51.992;4.498;2022-07-30T10:38:35;5.18;;;2.75;;
60436;SDS011;46289;51.992;4.498;2022-07-30T10:41:15;5.35;;;2.33;;
60436;SDS011;46289;51.992;4.498;2022-07-30T10:47:05;7.05;;;2.60;;
60436;SDS011;46289;51.992;4.498;2022-07-30T10:52:59;5.25;;;2.63;;
60436;SDS011;46289;51.992;4.498;2022-07-30T10:55:37;5.40;;;2.60;;
60436;SDS011;46289;51.992;4.498;2022-07-30T10:58:16;7.88;;;2.70;;
60436;SDS011;46289;51.992;4.498;2022-07-30T11:00:59;4.70;;;2.42;;
60436;SDS011;46289;51.992;4.498;2022-07-30T11:03:44;8.90;;;4.10;;
60436;SDS011;46289;51.992;4.498;2022-07-30T11:13:09;6.40;;;2.70;;
60436;SDS011;46289;51.992;4.498;2022-07-30T11:16:17;3.60;;;2.20;;
60436;SDS011;46289;51.992;4.498;2022-07-30T11:22:27;7.57;;;3.05;;
60436;SDS011;46289;51.992;4.498;2022-07-30T11:25:06;6.50;;;2.53;;
60436;SDS011;46289;51.992;4.498;2022-07-30T11:27:41;6.07;;;2.80;;
60436;SDS011;46289;51.992;4.498;2022-07-30T11:30:30;6.93;;;3.00;;
60436;SDS011;46289;51.992;4.498;2022-07-30T11:33:26;6.10;;;2.92;;
60436;SDS011;46289;51.992;4.498;2022-07-30T11:36:11;7.72;;;2.97;;
60436;SDS011;46289;51.992;4.498;2022-07-30T11:38:56;5.28;;;2.70;;
60436;SDS011;46289;51.992;4.498;2022-07-30T11:41:33;5.22;;;2.72;;
60436;SDS011;46289;51.992;4.498;2022-07-30T11:47:10;8.75;;;3.92;;
60436;SDS011;46289;51.992;4.498;2022-07-30T11:49:45;5.97;;;2.97;;
60436;SDS011;46289;51.992;4.498;2022-07-30T11:52:21;8.27;;;3.47;;
60436;SDS011;46289;51.992;4.498;2022-07-30T11:54:53;10.35;;;3.42;;
60436;SDS011;46289;51.992;4.498;2022-07-30T11:57:38;7.82;;;3.03;;
60436;SDS011;46289;51.992;4.498;2022-07-30T12:00:13;6.40;;;3.45;;
60436;SDS011;46289;51.992;4.498;2022-07-30T12:02:48;7.43;;;3.13;;
60436;SDS011;46289;51.992;4.498;2022-07-30T12:05:32;8.63;;;3.67;;
60436;SDS011;46289;51.992;4.498;2022-07-30T12:08:08;6.38;;;3.15;;
60436;SDS011;46289;51.992;4.498;2022-07-30T12:11:05;8.00;;;3.58;;
60436;SDS011;46289;51.992;4.498;2022-07-30T12:13:38;8.27;;;3.22;;
60436;SDS011;46289;51.992;4.498;2022-07-30T12:16:12;9.85;;;3.45;;
60436;SDS011;46289;51.992;4.498;2022-07-30T12:18:45;10.18;;;3.42;;
60436;SDS011;46289;51.992;4.498;2022-07-30T12:21:25;9.60;;;3.40;;
60436;SDS011;46289;51.992;4.498;2022-07-30T12:24:04;8.50;;;3.50;;
60436;SDS011;46289;51.992;4.498;2022-07-30T12:27:02;8.80;;;3.50;;
60436;SDS011;46289;51.992;4.498;2022-07-30T12:30:02;8.10;;;3.15;;
60436;SDS011;46289;51.992;4.498;2022-07-30T12:32:55;7.75;;;3.30;;
60436;SDS011;46289;51.992;4.498;2022-07-30T12:36:26;6.47;;;2.90;;
60436;SDS011;46289;51.992;4.498;2022-07-30T12:39:21;6.28;;;3.20;;
60436;SDS011;46289;51.992;4.498;2022-07-30T12:42:04;6.80;;;2.72;;
60436;SDS011;46289;51.992;4.498;2022-07-30T12:44:51;8.98;;;3.08;;
60436;SDS011;46289;51.992;4.498;2022-07-30T12:47:33;5.57;;;2.65;;
60436;SDS011;46289;51.992;4.498;2022-07-30T12:50:14;5.50;;;3.30;;
60436;SDS011;46289;51.992;4.498;2022-07-30T12:52:52;6.63;;;3.10;;
60436;SDS011;46289;51.992;4.498;2022-07-30T12:55:29;7.25;;;2.83;;
60436;SDS011;46289;51.992;4.498;2022-07-30T12:58:02;9.95;;;3.38;;
60436;SDS011;46289;51.992;4.498;2022-07-30T13:00:44;7.07;;;2.95;;
60436;SDS011;46289;51.992;4.498;2022-07-30T13:03:19;5.68;;;2.90;;
60436;SDS011;46289;51.992;4.498;2022-07-30T13:11:20;7.38;;;3.15;;
60436;SDS011;46289;51.992;4.498;2022-07-30T13:13:57;6.88;;;3.03;;
60436;SDS011;46289;51.992;4.498;2022-07-30T13:16:30;7.20;;;3.05;;
60436;SDS011;46289;51.992;4.498;2022-07-30T13:21:35;8.60;;;3.42;;
60436;SDS011;46289;51.992;4.498;2022-07-30T13:24:17;8.25;;;3.53;;
60436;SDS011;46289;51.992;4.498;2022-07-30T13:26:48;9.40;;;3.20;;
60436;SDS011;46289;51.992;4.498;2022-07-30T13:29:19;9.05;;;3.65;;
60436;SDS011;46289;51.992;4.498;2022-07-30T13:31:51;8.32;;;2.90;;
60436;SDS011;46289;51.992;4.498;2022-07-30T13:34:21;8.85;;;3.17;;
60436;SDS011;46289;51.992;4.498;2022-07-30T13:36:52;8.60;;;3.17;;
60436;SDS011;46289;51.992;4.498;2022-07-30T13:39:24;6.53;;;3.00;;
60436;SDS011;46289;51.992;4.498;2022-07-30T13:41:58;8.95;;;3.47;;
60436;SDS011;46289;51.992;4.498;2022-07-30T13:44:31;7.30;;;3.42;;
60436;SDS011;46289;51.992;4.498;2022-07-30T13:47:03;7.47;;;3.20;;
60436;SDS011;46289;51.992;4.498;2022-07-30T13:49:34;7.95;;;3.35;;
60436;SDS011;46289;51.992;4.498;2022-07-30T13:52:09;5.07;;;3.25;;
60436;SDS011;46289;51.992;4.498;2022-07-30T13:54:43;6.22;;;3.30;;
60436;SDS011;46289;51.992;4.498;2022-07-30T13:57:13;6.32;;;3.10;;
60436;SDS011;46289;51.992;4.498;2022-07-30T13:59:43;10.93;;;3.70;;
60436;SDS011;46289;51.992;4.498;2022-07-30T14:02:17;7.93;;;3.30;;
60436;SDS011;46289;51.992;4.498;2022-07-30T14:04:49;6.05;;;3.20;;
60436;SDS011;46289;51.992;4.498;2022-07-30T14:07:24;11.85;;;3.70;;
60436;SDS011;46289;51.992;4.498;2022-07-30T14:09:58;6.55;;;3.40;;
60436;SDS011;46289;51.992;4.498;2022-07-30T14:12:30;6.30;;;3.45;;
60436;SDS011;46289;51.992;4.498;2022-07-30T14:15:00;6.25;;;3.20;;
60436;SDS011;46289;51.992;4.498;2022-07-30T14:17:31;6.60;;;3.22;;
60436;SDS011;46289;51.992;4.498;2022-07-30T14:20:01;8.85;;;3.72;;
60436;SDS011;46289;51.992;4.498;2022-07-30T14:22:33;5.75;;;3.10;;
60436;SDS011;46289;51.992;4.498;2022-07-30T14:25:08;6.03;;;3.58;;
60436;SDS011;46289;51.992;4.498;2022-07-30T14:27:41;7.63;;;4.15;;
60436;SDS011;46289;51.992;4.498;2022-07-30T14:30:13;7.43;;;3.50;;
60436;SDS011;46289;51.992;4.498;2022-07-30T14:32:47;7.78;;;3.25;;
60436;SDS011;46289;51.992;4.498;2022-07-30T14:35:25;8.07;;;3.63;;
60436;SDS011;46289;51.992;4.498;2022-07-30T14:37:56;6.78;;;3.10;;
60436;SDS011;46289;51.992;4.498;2022-07-30T14:40:32;6.78;;;3.35;;
60436;SDS011;46289;51.992;4.498;2022-07-30T14:45:33;6.95;;;3.42;;
60436;SDS011;46289;51.992;4.498;2022-07-30T14:48:03;8.68;;;3.42;;
60436;SDS011;46289;51.992;4.498;2022-07-30T14:50:34;7.63;;;3.60;;
60436;SDS011;46289;51.992;4.498;2022-07-30T14:53:25;6.72;;;2.97;;
60436;SDS011;46289;51.992;4.498;2022-07-30T14:55:59;6.32;;;3.55;;
60436;SDS011;46289;51.992;4.498;2022-07-30T14:58:29;12.00;;;5.50;;
60436;SDS011;46289;51.992;4.498;2022-07-30T15:01:02;7.43;;;3.40;;
60436;SDS011;46289;51.992;4.498;2022-07-30T15:03:42;9.88;;;4.05;;
60436;SDS011;46289;51.992;4.498;2022-07-30T15:08:45;9.68;;;3.97;;
60436;SDS011;46289;51.992;4.498;2022-07-30T15:11:19;8.68;;;3.47;;
60436;SDS011;46289;51.992;4.498;2022-07-30T15:13:59;12.35;;;5.20;;
60436;SDS011;46289;51.992;4.498;2022-07-30T15:16:36;9.25;;;4.18;;
60436;SDS011;46289;51.992;4.498;2022-07-30T15:19:09;11.30;;;4.28;;
60436;SDS011;46289;51.992;4.498;2022-07-30T15:21:40;6.85;;;3.70;;
60436;SDS011;46289;51.992;4.498;2022-07-30T15:24:11;10.05;;;4.97;;
60436;SDS011;46289;51.992;4.498;2022-07-30T15:26:49;9.60;;;4.68;;
60436;SDS011;46289;51.992;4.498;2022-07-30T15:29:20;12.15;;;4.45;;
60436;SDS011;46289;51.992;4.498;2022-07-30T15:31:56;10.50;;;3.88;;
60436;SDS011;46289;51.992;4.498;2022-07-30T15:34:32;9.25;;;3.75;;
60436;SDS011;46289;51.992;4.498;2022-07-30T15:37:03;8.98;;;4.15;;
60436;SDS011;46289;51.992;4.498;2022-07-30T15:39:35;6.93;;;3.90;;
60436;SDS011;46289;51.992;4.498;2022-07-30T15:42:09;7.63;;;4.15;;
60436;SDS011;46289;51.992;4.498;2022-07-30T15:44:42;10.63;;;4.55;;
60436;SDS011;46289;51.992;4.498;2022-07-30T15:47:14;6.40;;;4.20;;
60436;SDS011;46289;51.992;4.498;2022-07-30T15:49:47;9.57;;;4.53;;
60436;SDS011;46289;51.992;4.498;2022-07-30T15:52:18;10.25;;;4.38;;
60436;SDS011;46289;51.992;4.498;2022-07-30T15:54:48;10.80;;;4.75;;
60436;SDS011;46289;51.992;4.498;2022-07-30T15:57:21;10.60;;;5.38;;
60436;SDS011;46289;51.992;4.498;2022-07-30T15:59:52;10.02;;;4.47;;
60436;SDS011;46289;51.992;4.498;2022-07-30T16:02:22;9.38;;;4.75;;
60436;SDS011;46289;51.992;4.498;2022-07-30T16:04:54;15.50;;;8.07;;